Portada
METAR-TAF:

METAR-TAF

Aeropuertos :

Kish, Irán

latitud: 26-31-36N, longitud: 053-58-54E, altitud: 30 m

Observación

El informe se hizo hace 58 minutos, a las 02:00 UTC
Viento 6 kt del noroeste
Temperatura 18°C
Humedad 68%
Presión 1013 hPa
Visibilidad: 7000 m

METAR: OIBK 280200Z 32006KT 7000 NSC 18/12 Q1013

Hora: 06:28 (02:58 UTC)

Pronóstico

El informe se hizo hace 3 horas y 58 minutos, a las 23:00 UTC
Pronóstico válido del 28 a las 00 UTC al 01 a las 06 UTC
Viento 10 kt del oeste-noroeste
Visibilidad: 8000 m
Evolucionando progresivamente
del 28 a las 06 UTC al 28 a las 08 UTC
Viento 6 kt del oeste-suroeste

TAF: OIBK 272300Z 2800/0106 30010KT 8000 NSC BECMG 2806/2808 24006KT

Observaciones y pronósticos meteorológicos de más de 4000 aeropuertos (mensajes METAR y TAF).

Los puntos amarillos y rojos representan las estaciones disponibles.

Ponga el ratón en el punto deseado para ver el nombre de la estación.

Haga clic para ver las observaciones y los pronósticos meteorológicos.

Para cambiar el mapa : haga clic en los botones verdes con una cruz de color negro para hacer un zoom, en el botón verde con un guión para alejar o en las flechas verdes para mapas adyacentes.


METAR-TAF: